createdAt,value
2024-02-06T00:01:52.413Z,101884.97
2024-02-06T00:04:19.584Z,101888.59
2024-02-06T00:06:46.349Z,101883.47
2024-02-06T00:09:13.084Z,101886.09
2024-02-06T00:11:39.950Z,101884.47
2024-02-06T00:14:06.908Z,101883.31
2024-02-06T00:16:33.565Z,101881.50
2024-02-06T00:19:00.214Z,101883.00
2024-02-06T00:21:26.817Z,101876.56
2024-02-06T00:23:53.340Z,101877.25
2024-02-06T00:26:20.031Z,101869.31
2024-02-06T00:28:47.580Z,101859.72
2024-02-06T00:31:14.388Z,101852.47
2024-02-06T00:33:41.220Z,101851.63
2024-02-06T00:36:08.174Z,101854.59
2024-02-06T00:38:34.818Z,101862.66
2024-02-06T00:41:01.396Z,101854.91
2024-02-06T00:43:28.792Z,101859.50
2024-02-06T00:45:55.601Z,101857.19
2024-02-06T00:48:22.340Z,101850.38
2024-02-06T00:50:49.271Z,101863.25
2024-02-06T00:53:15.918Z,101856.47
2024-02-06T00:55:42.658Z,101846.88
2024-02-06T00:58:10.102Z,101847.53
2024-02-06T01:00:37.674Z,101846.88
2024-02-06T01:03:04.449Z,101843.75
2024-02-06T01:05:31.032Z,101838.31
2024-02-06T01:07:59.374Z,101842.44
2024-02-06T01:10:26.236Z,101829.22
2024-02-06T01:12:52.953Z,101831.59
2024-02-06T01:15:19.645Z,101827.63
2024-02-06T01:17:46.337Z,101834.75
2024-02-06T01:20:13.173Z,101828.97
2024-02-06T01:22:40.061Z,101819.88
2024-02-06T01:25:06.905Z,101820.41
2024-02-06T01:27:33.480Z,101815.78
2024-02-06T01:30:02.618Z,101803.75
2024-02-06T01:32:29.283Z,101798.47
2024-02-06T01:34:56.280Z,101805.41
2024-02-06T01:37:22.904Z,101809.22
2024-02-06T01:39:49.528Z,101799.63
2024-02-06T01:42:16.175Z,101793.53
2024-02-06T01:44:42.783Z,101804.63
2024-02-06T01:47:09.951Z,101795.38
2024-02-06T01:49:37.782Z,101797.34
2024-02-06T01:52:05.855Z,101798.19
2024-02-06T01:54:32.435Z,101791.75
2024-02-06T01:56:59.279Z,101792.91
2024-02-06T01:59:26.464Z,101789.31
2024-02-06T02:01:53.953Z,101780.03
2024-02-06T02:04:20.936Z,101774.13
2024-02-06T02:06:48.281Z,101773.94
2024-02-06T02:09:15.047Z,101776.44
2024-02-06T02:11:41.639Z,101762.19
2024-02-06T02:14:08.559Z,101765.34
2024-02-06T02:16:35.308Z,101766.19
2024-02-06T02:19:02.056Z,101757.25
2024-02-06T02:21:30.754Z,101757.06
2024-02-06T02:23:57.548Z,101743.38
2024-02-06T02:26:24.850Z,101758.25
2024-02-06T02:28:52.958Z,101741.03
2024-02-06T02:31:21.608Z,101744.50
2024-02-06T02:33:48.660Z,101753.81
2024-02-06T02:36:15.974Z,101749.31
2024-02-06T02:38:43.442Z,101737.25
2024-02-06T02:41:10.038Z,101741.53
2024-02-06T02:43:36.797Z,101739.06
2024-02-06T02:46:03.992Z,101744.03
2024-02-06T02:48:30.876Z,101732.63
2024-02-06T02:50:57.546Z,101735.56
2024-02-06T02:53:24.121Z,101729.31
2024-02-06T02:55:50.803Z,101734.28
2024-02-06T02:58:17.765Z,101731.97
2024-02-06T03:00:44.500Z,101723.84
2024-02-06T03:03:11.244Z,101716.06
2024-02-06T03:05:39.088Z,101716.25
2024-02-06T03:08:06.247Z,101714.59
2024-02-06T03:10:33.061Z,101702.50
2024-02-06T03:12:59.671Z,101713.78
2024-02-06T03:15:27.025Z,101719.22
2024-02-06T03:17:55.646Z,101697.22
2024-02-06T03:20:22.625Z,101705.00
2024-02-06T03:22:49.971Z,101688.13
2024-02-06T03:25:17.073Z,101700.03
2024-02-06T03:27:44.722Z,101694.75
2024-02-06T03:30:12.087Z,101688.47
2024-02-06T03:32:39.647Z,101685.50
2024-02-06T03:35:08.418Z,101700.53
2024-02-06T03:37:35.670Z,101693.44
2024-02-06T03:40:02.463Z,101699.34
2024-02-06T03:42:29.129Z,101684.16
2024-02-06T03:44:55.741Z,101684.16
2024-02-06T03:47:22.702Z,101674.91
2024-02-06T03:49:49.500Z,101671.94
2024-02-06T03:52:16.248Z,101663.66
2024-02-06T03:54:42.874Z,101655.88
2024-02-06T03:57:09.498Z,101652.09
2024-02-06T03:59:36.588Z,101649.63
2024-02-06T04:02:04.553Z,101655.38
2024-02-06T04:04:31.630Z,101649.94
2024-02-06T04:06:58.452Z,101639.00
2024-02-06T04:09:25.158Z,101658.69
2024-02-06T04:11:51.815Z,101650.25
2024-02-06T04:14:18.508Z,101646.59
2024-02-06T04:16:45.721Z,101643.97
2024-02-06T04:19:12.832Z,101641.00
2024-02-06T04:21:39.678Z,101636.69
2024-02-06T04:24:09.612Z,101634.69
2024-02-06T04:26:36.816Z,101638.34
2024-02-06T04:29:03.390Z,101642.00
2024-02-06T04:31:29.978Z,101644.47
2024-02-06T04:33:56.747Z,101636.53
2024-02-06T04:36:24.147Z,101633.72
2024-02-06T04:38:51.195Z,101633.38
2024-02-06T04:41:17.810Z,101626.25
2024-02-06T04:43:44.972Z,101624.41
2024-02-06T04:46:11.738Z,101624.41
2024-02-06T04:48:38.506Z,101615.84
2024-02-06T04:51:05.205Z,101615.84
2024-02-06T04:53:32.875Z,101617.97
2024-02-06T04:56:00.977Z,101617.97
2024-02-06T04:58:27.797Z,101612.34
2024-02-06T05:00:54.589Z,101607.22
2024-02-06T05:03:21.296Z,101606.50
2024-02-06T05:05:47.910Z,101612.31
2024-02-06T05:08:14.637Z,101608.81
2024-02-06T05:10:41.868Z,101604.19
2024-02-06T05:13:08.941Z,101608.81
2024-02-06T05:15:35.533Z,101604.34
2024-02-06T05:18:02.318Z,101603.38
2024-02-06T05:20:29.554Z,101602.53
2024-02-06T05:22:56.153Z,101598.09
2024-02-06T05:25:24.760Z,101598.88
2024-02-06T05:27:51.881Z,101590.94
2024-02-06T05:30:19.572Z,101602.38
2024-02-06T05:32:46.298Z,101597.06
2024-02-06T05:35:13.287Z,101603.22
2024-02-06T05:37:40.243Z,101587.50
2024-02-06T05:40:08.597Z,101586.47
2024-02-06T05:42:35.283Z,101590.44
2024-02-06T05:45:01.857Z,101592.94
2024-02-06T05:47:28.947Z,101570.94
2024-02-06T05:49:55.914Z,101576.72
2024-02-06T05:52:22.863Z,101580.84
2024-02-06T05:54:49.694Z,101576.53
2024-02-06T05:57:16.359Z,101572.41
2024-02-06T05:59:42.941Z,101556.34
2024-02-06T06:02:09.791Z,101556.34
2024-02-06T06:04:36.761Z,101552.06
2024-02-06T06:07:03.659Z,101551.69
2024-02-06T06:09:30.641Z,101544.28
2024-02-06T06:11:57.365Z,101544.75
2024-02-06T06:14:23.992Z,101543.09
2024-02-06T06:16:50.547Z,101538.63
2024-02-06T06:19:17.204Z,101543.09
2024-02-06T06:21:44.244Z,101543.41
2024-02-06T06:24:11.146Z,101554.84
2024-02-06T06:26:38.707Z,101542.59
2024-02-06T06:29:05.584Z,101543.75
2024-02-06T06:31:32.256Z,101536.81
2024-02-06T06:33:59.073Z,101532.84
2024-02-06T06:36:25.804Z,101525.91
2024-02-06T06:38:53.004Z,101525.56
2024-02-06T06:41:19.601Z,101544.28
2024-02-06T06:43:46.397Z,101540.78
2024-02-06T06:46:13.174Z,101527.19
2024-02-06T06:48:39.907Z,101537.78
2024-02-06T06:51:06.984Z,101531.53
2024-02-06T06:53:33.580Z,101545.56
2024-02-06T06:56:00.237Z,101551.19
2024-02-06T06:58:26.965Z,101556.47
2024-02-06T07:00:54.428Z,101552.00
2024-02-06T07:03:21.329Z,101551.66
2024-02-06T07:05:52.487Z,101544.19
2024-02-06T07:08:19.241Z,101544.53
2024-02-06T07:10:45.924Z,101548.84
2024-02-06T07:13:12.889Z,101543.53
2024-02-06T07:15:39.560Z,101549.31
2024-02-06T07:18:06.473Z,101548.69
2024-02-06T07:20:33.212Z,101547.03
2024-02-06T07:22:59.825Z,101542.56
2024-02-06T07:25:26.545Z,101545.03
2024-02-06T07:27:53.201Z,101545.03
2024-02-06T07:30:27.707Z,101543.22
2024-02-06T07:33:00.889Z,101548.97
2024-02-06T07:35:27.550Z,101552.28
2024-02-06T07:37:54.474Z,101551.28
2024-02-06T07:40:20.995Z,101557.22
2024-02-06T07:42:50.837Z,101553.09
2024-02-06T07:45:17.606Z,101543.03
2024-02-06T07:47:45.102Z,101553.50
2024-02-06T07:50:12.028Z,101544.75
2024-02-06T07:52:38.817Z,101559.16
2024-02-06T07:55:06.104Z,101560.50
2024-02-06T07:57:32.785Z,101554.56
2024-02-06T07:59:59.336Z,101567.81
2024-02-06T08:02:26.353Z,101571.44
2024-02-06T08:04:54.588Z,101559.72
2024-02-06T08:07:22.068Z,101567.00
2024-02-06T08:09:49.051Z,101568.00
2024-02-06T08:12:15.693Z,101560.22
2024-02-06T08:14:43.221Z,101537.22
2024-02-06T08:17:09.840Z,101537.88
2024-02-06T08:19:36.523Z,101532.06
2024-02-06T08:22:03.285Z,101524.91
2024-02-06T08:24:29.875Z,101534.81
2024-02-06T08:26:56.892Z,101514.56
2024-02-06T08:29:23.651Z,101516.91
2024-02-06T08:31:50.876Z,101501.81
2024-02-06T08:34:17.880Z,101525.31
2024-02-06T08:36:44.680Z,101525.13
2024-02-06T08:39:11.320Z,101519.81
2024-02-06T08:41:38.039Z,101517.84
2024-02-06T08:44:04.921Z,101517.84
2024-02-06T08:46:31.571Z,101506.94
2024-02-06T08:48:58.562Z,101515.72
2024-02-06T08:51:25.315Z,101510.59
2024-02-06T08:53:51.936Z,101516.72
2024-02-06T08:56:18.567Z,101516.03
2024-02-06T08:58:46.762Z,101510.38
2024-02-06T09:01:13.886Z,101501.44
2024-02-06T09:03:40.682Z,101496.13
2024-02-06T09:06:07.791Z,101499.22
2024-02-06T09:08:34.546Z,101481.69
2024-02-06T09:11:01.264Z,101482.53
2024-02-06T09:13:27.931Z,101474.88
2024-02-06T09:15:54.549Z,101485.97
2024-02-06T09:18:21.640Z,101468.31
2024-02-06T09:20:48.829Z,101483.91
2024-02-06T09:23:15.405Z,101476.63
2024-02-06T09:25:44.855Z,101475.56
2024-02-06T09:28:11.642Z,101469.47
2024-02-06T09:30:40.871Z,101471.69
2024-02-06T09:33:08.229Z,101470.19
2024-02-06T09:35:34.950Z,101466.56
2024-02-06T09:38:01.744Z,101464.72
2024-02-06T09:40:28.428Z,101452.31
2024-02-06T09:42:55.792Z,101443.16
2024-02-06T09:45:22.506Z,101447.13
2024-02-06T09:47:49.223Z,101440.50
2024-02-06T09:50:15.935Z,101444.25
2024-02-06T09:52:45.903Z,101460.81
2024-02-06T09:55:16.697Z,101446.72
2024-02-06T09:57:45.828Z,101447.06
2024-02-06T10:00:15.320Z,101443.47
2024-02-06T10:02:44.269Z,101440.53
2024-02-06T10:05:18.860Z,101446.84
2024-02-06T10:07:52.293Z,101441.72
2024-02-06T10:10:20.521Z,101435.94
2024-02-06T10:12:47.248Z,101432.16
2024-02-06T10:15:28.407Z,101426.84
2024-02-06T10:17:57.237Z,101422.38
2024-02-06T10:20:23.983Z,101401.50
2024-02-06T10:22:51.675Z,101387.03
2024-02-06T10:25:19.089Z,101396.19
2024-02-06T10:27:46.178Z,101381.47
2024-02-06T10:30:13.081Z,101349.75
2024-02-06T10:32:40.459Z,101359.88
2024-02-06T10:35:09.164Z,101345.69
2024-02-06T10:37:38.612Z,101337.38
2024-02-06T10:40:10.653Z,101328.38
2024-02-06T10:43:09.616Z,101333.97
2024-02-06T10:45:24.894Z,101322.25
2024-02-06T10:47:59.365Z,101306.97
2024-02-06T10:50:29.928Z,101311.91
2024-02-06T10:52:57.238Z,101308.25
2024-02-06T10:55:24.430Z,101309.06
2024-02-06T10:58:06.022Z,101290.97
2024-02-06T11:00:38.151Z,101298.81
2024-02-06T11:03:10.303Z,101281.78
2024-02-06T11:05:50.205Z,101289.94
2024-02-06T11:08:21.158Z,101293.59
2024-02-06T11:10:53.004Z,101290.19
2024-02-06T11:13:23.307Z,101309.41
2024-02-06T11:15:52.991Z,101307.41
2024-02-06T11:18:21.028Z,101318.38
2024-02-06T11:20:52.082Z,101312.56
2024-02-06T11:23:22.020Z,101318.56
2024-02-06T11:25:50.251Z,101320.59
2024-02-06T11:28:18.360Z,101335.59
2024-02-06T11:30:46.245Z,101329.78
2024-02-06T11:33:15.889Z,101341.28
2024-02-06T11:35:42.713Z,101336.13
2024-02-06T11:38:09.964Z,101341.94
2024-02-06T11:40:36.830Z,101336.94
2024-02-06T11:43:10.487Z,101340.91
2024-02-06T11:45:38.915Z,101354.09
2024-02-06T11:48:08.270Z,101341.38
2024-02-06T11:50:42.678Z,101346.41
2024-02-06T11:53:14.690Z,101320.72
2024-02-06T11:55:42.901Z,101337.97
2024-02-06T11:58:10.385Z,101336.06
2024-02-06T12:00:37.786Z,101337.44
2024-02-06T12:03:06.182Z,101331.47
2024-02-06T12:05:42.188Z,101313.91
2024-02-06T12:08:11.964Z,101326.66
2024-02-06T12:10:40.245Z,101329.00
2024-02-06T12:13:10.783Z,101322.97
2024-02-06T12:15:39.003Z,101334.75
2024-02-06T12:18:16.100Z,101334.38
2024-02-06T12:20:43.319Z,101332.38
2024-02-06T12:23:10.927Z,101341.56
2024-02-06T12:25:43.956Z,101341.09
2024-02-06T12:28:16.949Z,101359.75
2024-02-06T12:30:46.508Z,101349.13
2024-02-06T12:33:13.371Z,101365.00
2024-02-06T12:35:40.435Z,101347.13
2024-02-06T12:38:09.090Z,101365.91
2024-02-06T12:40:40.372Z,101358.59
2024-02-06T12:43:09.171Z,101345.72
2024-02-06T12:45:36.457Z,101354.25
2024-02-06T12:48:04.375Z,101361.03
2024-02-06T12:50:31.507Z,101355.72
2024-02-06T12:53:01.665Z,101341.81
2024-02-06T12:55:30.621Z,101346.88
2024-02-06T12:57:58.757Z,101350.84
2024-02-06T13:00:25.773Z,101344.16
2024-02-06T13:03:02.922Z,101339.38
2024-02-06T13:05:32.221Z,101346.88
2024-02-06T13:08:09.400Z,101333.97
2024-02-06T13:10:36.629Z,101334.31
2024-02-06T13:13:05.950Z,101312.47
2024-02-06T13:15:33.696Z,101319.22
2024-02-06T13:18:01.673Z,101328.41
2024-02-06T13:20:32.137Z,101319.97
2024-02-06T13:23:12.129Z,101312.66
2024-02-06T13:25:39.454Z,101313.25
2024-02-06T13:28:06.878Z,101309.03
2024-02-06T13:30:36.454Z,101326.00
2024-02-06T13:33:04.806Z,101317.38
2024-02-06T13:35:31.623Z,101339.09
2024-02-06T13:38:01.546Z,101326.59
2024-02-06T13:40:28.603Z,101344.06
2024-02-06T13:42:55.292Z,101326.78
2024-02-06T13:45:21.975Z,101335.72
2024-02-06T13:47:48.744Z,101329.31
2024-02-06T13:50:15.515Z,101329.38
2024-02-06T13:52:42.542Z,101309.31
2024-02-06T13:55:11.210Z,101321.81
2024-02-06T13:57:38.512Z,101325.50
2024-02-06T14:00:06.744Z,101314.88
2024-02-06T14:02:33.538Z,101309.47
2024-02-06T14:05:00.357Z,101300.31
2024-02-06T14:07:27.475Z,101304.16
2024-02-06T14:09:54.103Z,101302.25
2024-02-06T14:12:26.120Z,101298.53
2024-02-06T14:14:53.578Z,101299.72
2024-02-06T14:17:22.343Z,101300.50
2024-02-06T14:19:50.194Z,101301.75
2024-02-06T14:22:18.958Z,101284.38
2024-02-06T14:24:45.785Z,101283.22
2024-02-06T14:27:12.389Z,101284.63
2024-02-06T14:29:39.047Z,101289.72
2024-02-06T14:32:06.035Z,101286.63
2024-02-06T14:34:32.803Z,101281.31
2024-02-06T14:37:02.228Z,101292.06
2024-02-06T14:39:29.170Z,101286.19
2024-02-06T14:41:55.771Z,101289.72
2024-02-06T14:44:29.668Z,101286.19
2024-02-06T14:47:03.560Z,101279.38
2024-02-06T14:49:30.271Z,101282.16
2024-02-06T14:51:57.271Z,101282.50
2024-02-06T14:54:25.141Z,101281.66
2024-02-06T14:56:51.706Z,101278.09
2024-02-06T14:59:18.303Z,101285.78
2024-02-06T15:01:44.961Z,101276.06
2024-02-06T15:04:11.750Z,101281.44
2024-02-06T15:06:40.102Z,101279.06
2024-02-06T15:09:07.871Z,101274.00
2024-02-06T15:11:35.619Z,101285.63
2024-02-06T15:14:02.420Z,101284.56
2024-02-06T15:16:29.288Z,101282.28
2024-02-06T15:18:55.942Z,101280.16
2024-02-06T15:21:22.843Z,101268.31
2024-02-06T15:23:49.577Z,101283.13
2024-02-06T15:26:35.146Z,101289.00
2024-02-06T15:29:02.369Z,101275.47
2024-02-06T15:31:30.041Z,101285.06
2024-02-06T15:33:56.993Z,101277.50
2024-02-06T15:36:25.295Z,101280.97
2024-02-06T15:38:55.466Z,101276.47
2024-02-06T15:41:23.871Z,101268.25
2024-02-06T15:43:50.679Z,101258.84
2024-02-06T15:46:17.959Z,101258.00
2024-02-06T15:48:46.815Z,101245.09
2024-02-06T15:51:13.724Z,101235.59
2024-02-06T15:53:40.959Z,101238.44
2024-02-06T15:56:07.801Z,101218.94
2024-02-06T15:58:34.533Z,101237.38
2024-02-06T16:01:01.630Z,101223.25
2024-02-06T16:03:28.332Z,101223.47
2024-02-06T16:05:54.994Z,101228.94
2024-02-06T16:08:21.768Z,101221.19
2024-02-06T16:10:48.769Z,101217.13
2024-02-06T16:13:18.613Z,101226.75
2024-02-06T16:15:46.833Z,101235.69
2024-02-06T16:18:13.924Z,101246.31
2024-02-06T16:20:40.724Z,101235.88
2024-02-06T16:23:10.495Z,101233.63
2024-02-06T16:25:37.165Z,101242.66
2024-02-06T16:28:04.104Z,101253.53
2024-02-06T16:30:30.744Z,101255.38
2024-02-06T16:32:57.400Z,101260.47
2024-02-06T16:35:24.188Z,101243.72
2024-02-06T16:37:51.082Z,101256.81
2024-02-06T16:40:19.024Z,101265.16
2024-02-06T16:42:46.195Z,101259.84
2024-02-06T16:45:13.091Z,101266.16
2024-02-06T16:47:40.003Z,101260.03
2024-02-06T16:50:07.338Z,101265.72
2024-02-06T16:52:34.164Z,101271.47
2024-02-06T16:55:01.016Z,101269.63
2024-02-06T16:57:27.677Z,101249.97
2024-02-06T16:59:54.243Z,101257.75
2024-02-06T17:02:21.162Z,101248.97
2024-02-06T17:04:47.890Z,101255.19
2024-02-06T17:07:14.761Z,101254.81
2024-02-06T17:09:41.470Z,101258.84
2024-02-06T17:12:08.149Z,101258.84
2024-02-06T17:14:35.082Z,101267.06
2024-02-06T17:17:01.793Z,101255.81
2024-02-06T17:19:28.478Z,101265.41
2024-02-06T17:21:55.193Z,101264.59
2024-02-06T17:24:21.746Z,101249.88
2024-02-06T17:26:48.379Z,101256.00
2024-02-06T17:29:15.146Z,101254.91
2024-02-06T17:31:41.982Z,101251.44
2024-02-06T17:34:08.833Z,101244.69
2024-02-06T17:36:39.673Z,101247.53
2024-02-06T17:39:06.761Z,101244.69
2024-02-06T17:41:33.377Z,101247.78
2024-02-06T17:44:00.103Z,101245.75
2024-02-06T17:46:26.831Z,101237.78
2024-02-06T17:48:53.511Z,101233.69
2024-02-06T17:51:20.068Z,101222.69
2024-02-06T17:53:46.615Z,101228.00
2024-02-06T17:56:13.209Z,101209.63
2024-02-06T17:58:42.383Z,101206.31
2024-02-06T18:01:10.362Z,101187.94
2024-02-06T18:03:37.330Z,101185.47
2024-02-06T18:06:04.139Z,101191.63
2024-02-06T18:08:31.113Z,101177.06
2024-02-06T18:10:57.908Z,101187.88
2024-02-06T18:13:24.571Z,101176.00
2024-02-06T18:15:51.301Z,101170.06
2024-02-06T18:18:18.263Z,101152.88
2024-02-06T18:20:44.972Z,101154.63
2024-02-06T18:23:11.547Z,101160.75
2024-02-06T18:25:38.350Z,101136.88
2024-02-06T18:28:06.484Z,101154.09
2024-02-06T18:30:35.258Z,101154.69
2024-02-06T18:33:02.135Z,101145.56
2024-02-06T18:35:28.910Z,101137.59
2024-02-06T18:37:57.693Z,101147.75
2024-02-06T18:40:24.359Z,101148.13
2024-02-06T18:42:51.306Z,101140.63
2024-02-06T18:45:18.043Z,101149.84
2024-02-06T18:47:45.159Z,101153.13
2024-02-06T18:50:11.913Z,101160.25
2024-02-06T18:52:39.696Z,101152.41
2024-02-06T18:55:12.656Z,101149.38
2024-02-06T18:57:42.737Z,101123.63
2024-02-06T19:00:10.893Z,101138.75
2024-02-06T19:02:38.311Z,101141.22
2024-02-06T19:05:05.897Z,101139.56
2024-02-06T19:07:33.133Z,101136.72
2024-02-06T19:10:00.328Z,101132.88
2024-02-06T19:12:27.181Z,101131.41
2024-02-06T19:14:53.957Z,101128.94
2024-02-06T19:17:20.656Z,101125.69
2024-02-06T19:19:48.598Z,101119.09
2024-02-06T19:22:15.760Z,101117.81
2024-02-06T19:24:42.897Z,101104.16
2024-02-06T19:27:09.593Z,101098.84
2024-02-06T19:29:36.212Z,101096.44
2024-02-06T19:32:06.473Z,101106.47
2024-02-06T19:34:34.756Z,101114.25
2024-02-06T19:37:01.903Z,101102.63
2024-02-06T19:39:28.587Z,101109.13
2024-02-06T19:41:57.224Z,101095.69
2024-02-06T19:44:23.994Z,101093.22
2024-02-06T19:46:51.313Z,101092.13
2024-02-06T19:49:18.374Z,101107.16
2024-02-06T19:51:45.350Z,101096.09
2024-02-06T19:54:12.055Z,101096.47
2024-02-06T19:56:39.210Z,101090.53
2024-02-06T19:59:05.748Z,101090.38
2024-02-06T20:01:32.524Z,101088.25
2024-02-06T20:04:01.007Z,101089.28
2024-02-06T20:06:27.597Z,101100.06
2024-02-06T20:08:55.042Z,101083.72
2024-02-06T20:11:21.728Z,101077.13
2024-02-06T20:13:48.486Z,101075.50
2024-02-06T20:16:15.271Z,101082.81
2024-02-06T20:18:41.998Z,101063.63
2024-02-06T20:21:08.683Z,101064.06
2024-02-06T20:23:39.060Z,101055.31
2024-02-06T20:26:07.064Z,101050.19
2024-02-06T20:28:34.003Z,101054.22
2024-02-06T20:31:02.545Z,101047.09
2024-02-06T20:33:29.435Z,101024.06
2024-02-06T20:35:56.134Z,101048.94
2024-02-06T20:38:22.756Z,101038.91
2024-02-06T20:40:49.575Z,101043.56
2024-02-06T20:43:16.222Z,101033.75
2024-02-06T20:45:42.804Z,101025.00
2024-02-06T20:48:10.252Z,101030.69
2024-02-06T20:50:37.092Z,101016.59
2024-02-06T20:53:04.921Z,101024.75
2024-02-06T20:55:31.583Z,101005.38
2024-02-06T20:57:58.889Z,101001.88
2024-02-06T21:00:25.599Z,101002.44
2024-02-06T21:02:52.756Z,100933.94
2024-02-06T21:05:19.456Z,100904.97
2024-02-06T21:07:47.218Z,100896.22
2024-02-06T21:10:13.966Z,100896.59
2024-02-06T21:12:40.981Z,100871.91
2024-02-06T21:15:08.066Z,100845.63
2024-02-06T21:17:35.478Z,100839.50
2024-02-06T21:20:02.465Z,100825.63
2024-02-06T21:22:29.250Z,100812.59
2024-02-06T21:24:56.073Z,100793.41
2024-02-06T21:27:22.674Z,100779.09
2024-02-06T21:29:49.225Z,100770.69
2024-02-06T21:32:15.817Z,100765.41
2024-02-06T21:34:42.658Z,100738.91
2024-02-06T21:37:09.795Z,100731.38
2024-02-06T21:39:36.583Z,100718.75
2024-02-06T21:42:04.365Z,100708.78
2024-02-06T21:44:31.221Z,100699.19
2024-02-06T21:46:58.260Z,100699.78
2024-02-06T21:49:25.546Z,100686.53
2024-02-06T21:51:52.365Z,100678.59
2024-02-06T21:54:19.480Z,100663.72
2024-02-06T21:56:46.928Z,100654.75
2024-02-06T21:59:14.058Z,100643.53
2024-02-06T22:01:44.745Z,100648.63
2024-02-06T22:04:11.990Z,100622.16
2024-02-06T22:06:38.896Z,100635.59
2024-02-06T22:09:08.484Z,100616.06
2024-02-06T22:11:35.829Z,100602.97
2024-02-06T22:14:02.438Z,100583.84
2024-02-06T22:16:29.360Z,100556.72
2024-02-06T22:18:56.039Z,100553.25
2024-02-06T22:21:22.778Z,100578.13
2024-02-06T22:23:49.417Z,100569.53
2024-02-06T22:26:16.081Z,100550.19
2024-02-06T22:28:42.731Z,100545.28
2024-02-06T22:31:09.711Z,100523.28
2024-02-06T22:33:37.031Z,100523.28
2024-02-06T22:36:03.942Z,100485.41
2024-02-06T22:38:31.679Z,100463.19
2024-02-06T22:40:59.188Z,100452.22
2024-02-06T22:43:26.606Z,100448.13
2024-02-06T22:45:53.231Z,100425.72
2024-02-06T22:48:19.864Z,100423.91
2024-02-06T22:50:46.491Z,100407.19
2024-02-06T22:53:13.206Z,100390.31
2024-02-06T22:55:39.767Z,100381.53
2024-02-06T22:58:06.636Z,100361.19
2024-02-06T23:00:33.738Z,100358.75
2024-02-06T23:03:01.778Z,100364.63
2024-02-06T23:05:28.429Z,100349.78
2024-02-06T23:07:56.869Z,100331.22
2024-02-06T23:10:23.656Z,100315.56
2024-02-06T23:12:50.994Z,100313.91
2024-02-06T23:15:23.591Z,100314.94
2024-02-06T23:17:50.451Z,100311.66
2024-02-06T23:20:17.498Z,100300.06
2024-02-06T23:22:44.681Z,100283.16
2024-02-06T23:25:11.719Z,100282.53
2024-02-06T23:27:38.638Z,100267.47
2024-02-06T23:30:07.480Z,100256.88
2024-02-06T23:32:34.382Z,100230.22
2024-02-06T23:35:01.200Z,100240.59
2024-02-06T23:37:28.260Z,100221.06
2024-02-06T23:39:54.899Z,100199.88
2024-02-06T23:42:21.656Z,100183.16
2024-02-06T23:44:48.310Z,100177.06
2024-02-06T23:47:14.915Z,100150.78
2024-02-06T23:49:41.690Z,100112.91
2024-02-06T23:52:08.513Z,100113.72
2024-02-06T23:54:36.896Z,100103.53
2024-02-06T23:57:03.544Z,100074.63
2024-02-06T23:59:30.323Z,100062.59
